Time;durP1;ratioP1;P1;durP2;ratioP2;P2;SDS_P1;SDS_P2;PMS_P1;PMS_P2;Temp;Humidity;BMP_temperature;BMP_pressure;BME280_temperature;BME280_humidity;BME280_pressure;Samples;Min_cycle;Max_cycle;Signal;HPM_P1;HPM_P2
2021/09/17 00:01:45;;;;;;;17.08;9.27;;;;;;;21.55;43.78;99542.03;5033358;28;20681;-70
2021/09/17 00:04:10;;;;;;;17.70;9.43;;;;;;;21.61;43.70;99537.56;5020482;28;20578;-70
2021/09/17 00:06:36;;;;;;;17.08;9.45;;;;;;;21.48;43.83;99540.00;5028459;28;20526;-70
2021/09/17 00:09:01;;;;;;;14.93;9.98;;;;;;;21.40;44.23;99536.34;5021102;28;20052;-70
2021/09/17 00:11:27;;;;;;;16.00;10.35;;;;;;;21.30;44.85;99537.16;5046634;28;20456;-70
2021/09/17 00:13:52;;;;;;;14.73;8.65;;;;;;;21.26;45.46;99539.22;5033160;28;20071;-70
2021/09/17 00:16:18;;;;;;;22.38;9.57;;;;;;;21.26;45.31;99542.84;5033192;28;20017;-70
2021/09/17 00:18:43;;;;;;;21.08;10.00;;;;;;;21.22;45.88;99544.06;5038919;28;20060;-70
2021/09/17 00:21:09;;;;;;;18.10;9.73;;;;;;;21.08;46.96;99540.00;5038680;28;20101;-70
2021/09/17 00:23:34;;;;;;;16.73;9.98;;;;;;;20.84;47.13;99535.94;5032231;28;20032;-70
2021/09/17 00:26:00;;;;;;;16.30;9.27;;;;;;;20.71;47.24;99535.47;5031795;28;20079;-70
2021/09/17 00:28:25;;;;;;;13.32;9.07;;;;;;;21.01;46.70;99537.19;5035276;28;20530;-70
2021/09/17 00:30:50;;;;;;;18.00;9.63;;;;;;;21.07;46.62;99541.22;5034063;28;20071;-70
2021/09/17 00:33:16;;;;;;;22.20;9.32;;;;;;;21.21;46.91;99546.13;5034904;28;20021;-70
2021/09/17 00:35:41;;;;;;;16.55;9.45;;;;;;;21.16;47.32;99535.97;5038599;28;20037;-70
2021/09/17 00:38:07;;;;;;;14.10;9.38;;;;;;;21.25;47.06;99531.91;5039241;28;20036;-70
2021/09/17 00:40:33;;;;;;;15.02;8.63;;;;;;;21.06;47.65;99542.44;5031756;28;20080;-70
2021/09/17 00:42:58;;;;;;;17.88;9.90;;;;;;;20.83;48.69;99545.69;5033112;28;20021;-70
2021/09/17 00:45:24;;;;;;;16.83;9.73;;;;;;;20.75;49.27;99539.13;5034066;28;20399;-70
2021/09/17 00:47:49;;;;;;;20.60;10.13;;;;;;;20.78;49.14;99535.50;5034139;28;20045;-70
2021/09/17 00:50:18;;;;;;;14.43;8.85;;;;;;;20.61;49.30;99543.56;5032954;28;20041;-70
2021/09/17 00:52:45;;;;;;;13.90;9.57;;;;;;;20.67;49.57;99540.34;5030476;28;20467;-70
2021/09/17 00:55:11;;;;;;;21.70;9.82;;;;;;;20.68;49.71;99544.81;5025414;28;20163;-70
2021/09/17 00:57:37;;;;;;;21.23;10.23;;;;;;;20.84;49.37;99542.41;5038413;28;20116;-70
2021/09/17 01:00:09;;;;;;;24.10;10.73;;;;;;;20.80;49.48;99535.91;5034694;28;20026;-70
2021/09/17 01:02:35;;;;;;;21.73;10.10;;;;;;;20.62;50.01;99535.88;5035304;28;20037;-70
2021/09/17 01:05:01;;;;;;;22.02;11.27;;;;;;;20.71;49.81;99535.47;5038291;28;20137;-70
2021/09/17 01:07:26;;;;;;;20.80;11.27;;;;;;;20.82;49.91;99530.66;5042857;28;20044;-70
2021/09/17 01:09:54;;;;;;;13.43;10.07;;;;;;;20.87;49.68;99526.59;5043797;28;20024;-70
2021/09/17 01:12:20;;;;;;;15.98;10.70;;;;;;;20.80;50.24;99530.22;5037954;28;20492;-70
2021/09/17 01:14:46;;;;;;;18.95;9.75;;;;;;;20.78;49.93;99532.66;5020028;28;20060;-70
2021/09/17 01:17:12;;;;;;;16.50;9.88;;;;;;;20.82;49.69;99527.00;5032135;28;20028;-70
2021/09/17 01:19:38;;;;;;;17.50;10.30;;;;;;;20.87;50.40;99532.28;5034042;28;20029;-70
2021/09/17 01:22:06;;;;;;;13.85;9.68;;;;;;;20.67;51.15;99526.13;5031322;28;20024;-70
2021/09/17 01:24:32;;;;;;;20.50;10.75;;;;;;;20.42;51.88;99526.88;5035503;28;20029;-70
2021/09/17 01:26:58;;;;;;;13.52;10.10;;;;;;;20.34;52.30;99518.34;5032503;28;20025;-70
2021/09/17 01:29:24;;;;;;;19.77;11.93;;;;;;;20.55;51.34;99519.63;5036191;28;20057;-70
2021/09/17 01:31:50;;;;;;;20.58;11.88;;;;;;;20.64;51.52;99507.06;5033071;28;20080;-70
2021/09/17 01:34:19;;;;;;;24.65;12.10;;;;;;;20.56;52.17;99515.56;5034257;28;20037;-70
2021/09/17 01:36:45;;;;;;;35.60;11.80;;;;;;;20.57;51.89;99500.13;5037065;28;20018;-70
2021/09/17 01:39:12;;;;;;;21.02;12.10;;;;;;;20.54;52.01;99502.97;5025808;28;20435;-70
2021/09/17 01:41:39;;;;;;;16.45;9.98;;;;;;;20.74;50.85;99512.75;5039491;28;20146;-70
2021/09/17 01:44:04;;;;;;;22.70;10.57;;;;;;;20.71;50.48;99516.41;5033786;28;20031;-70
2021/09/17 01:46:30;;;;;;;23.00;10.88;;;;;;;20.66;50.11;99498.94;5042912;28;20100;-71
2021/09/17 01:48:56;;;;;;;16.77;10.07;;;;;;;20.69;49.07;99504.59;5036430;28;20053;-70
2021/09/17 01:51:21;;;;;;;16.35;9.40;;;;;;;20.72;49.03;99500.16;5036556;28;20094;-70
2021/09/17 01:53:47;;;;;;;24.45;9.82;;;;;;;20.65;49.30;99491.63;5040637;28;20025;-70
2021/09/17 01:56:14;;;;;;;17.38;9.95;;;;;;;20.58;49.58;99489.59;5038573;28;20108;-70
2021/09/17 01:58:39;;;;;;;17.15;8.85;;;;;;;20.60;49.50;99496.47;5038149;28;20158;-70
2021/09/17 02:01:05;;;;;;;20.23;10.35;;;;;;;20.55;49.24;99496.06;5042277;28;20021;-70
2021/09/17 02:03:30;;;;;;;14.35;9.20;;;;;;;20.60;49.10;99484.31;5045992;28;20020;-70
2021/09/17 02:05:56;;;;;;;20.23;10.52;;;;;;;20.64;49.28;99495.69;5042075;28;20096;-70
2021/09/17 02:08:22;;;;;;;19.45;9.65;;;;;;;20.67;48.41;99492.84;5046494;28;20059;-70
2021/09/17 02:10:48;;;;;;;19.80;8.80;;;;;;;20.48;49.13;99491.19;5032784;28;20033;-70
2021/09/17 02:13:19;;;;;;;13.02;8.40;;;;;;;20.53;49.02;99489.97;5030844;28;20392;-70
2021/09/17 02:15:49;;;;;;;17.30;9.50;;;;;;;20.67;48.61;99489.19;5030799;28;20114;-70
2021/09/17 02:18:16;;;;;;;16.15;9.63;;;;;;;20.57;49.15;99490.78;5029759;28;20075;-70
2021/09/17 02:20:41;;;;;;;18.02;9.77;;;;;;;20.32;50.38;99491.53;5015760;28;20033;-70
2021/09/17 02:23:07;;;;;;;23.85;9.18;;;;;;;20.32;50.23;99485.88;5021538;28;20411;-70
2021/09/17 02:25:32;;;;;;;14.70;10.10;;;;;;;20.14;51.10;99486.63;5021648;28;20064;-70
2021/09/17 02:27:58;;;;;;;21.38;11.40;;;;;;;19.63;52.77;99488.41;5018999;28;20033;-70
2021/09/17 02:30:23;;;;;;;18.33;9.45;;;;;;;19.50;53.02;99477.38;5022403;28;20075;-70
2021/09/17 02:32:49;;;;;;;15.95;10.73;;;;;;;19.43;53.25;99480.19;5012537;28;20589;-70
2021/09/17 02:35:15;;;;;;;15.73;10.00;;;;;;;19.60;52.87;99472.97;5017894;28;20032;-70
2021/09/17 02:37:41;;;;;;;15.88;10.43;;;;;;;19.62;53.39;99484.75;5023276;28;20132;-70
2021/09/17 02:40:13;;;;;;;13.48;10.18;;;;;;;19.55;53.34;99498.06;5029735;28;20041;-70
2021/09/17 02:42:39;;;;;;;13.70;10.50;;;;;;;19.67;53.09;99492.09;5035929;28;20039;-70
2021/09/17 02:45:07;;;;;;;13.73;9.25;;;;;;;19.47;53.69;99492.38;5041845;28;20028;-70
2021/09/17 02:47:33;;;;;;;13.88;10.07;;;;;;;19.43;54.49;99488.69;5035914;28;20029;-70
2021/09/17 02:49:58;;;;;;;19.15;9.93;;;;;;;19.25;54.92;99482.09;5036278;28;20484;-70
2021/09/17 02:52:24;;;;;;;27.42;11.70;;;;;;;19.28;54.31;99482.13;5032449;28;20032;-70
2021/09/17 02:54:51;;;;;;;18.50;10.80;;;;;;;19.27;54.14;99485.34;5026242;28;20021;-70
2021/09/17 02:57:17;;;;;;;26.25;9.95;;;;;;;19.22;54.66;99484.50;5039713;28;20029;-70
2021/09/17 02:59:43;;;;;;;18.33;10.52;;;;;;;19.25;54.42;99476.41;5042880;28;20396;-70
2021/09/17 03:02:08;;;;;;;13.90;10.55;;;;;;;19.28;54.30;99469.94;5044088;28;20040;-70
2021/09/17 03:04:34;;;;;;;19.00;11.98;;;;;;;19.17;55.02;99464.22;5044562;28;20036;-70
2021/09/17 03:07:00;;;;;;;16.48;9.98;;;;;;;19.21;54.76;99471.53;5040670;28;20028;-70
2021/09/17 03:09:25;;;;;;;24.60;11.43;;;;;;;19.18;55.10;99475.13;5017114;28;20021;-70
2021/09/17 03:11:51;;;;;;;25.42;11.27;;;;;;;19.07;55.83;99466.56;5021678;28;20404;-70
2021/09/17 03:14:16;;;;;;;14.88;10.05;;;;;;;19.19;54.73;99471.13;5022400;28;20037;-70
2021/09/17 03:16:42;;;;;;;17.23;9.95;;;;;;;19.16;54.91;99480.38;5019259;28;20028;-70
2021/09/17 03:19:07;;;;;;;19.67;11.00;;;;;;;19.10;54.97;99479.16;5021854;28;20464;-70
2021/09/17 03:21:33;;;;;;;22.00;10.35;;;;;;;19.01;55.26;99481.50;5016637;28;20838;-70
2021/09/17 03:23:58;;;;;;;16.40;9.82;;;;;;;19.03;55.02;99476.25;5024023;28;20036;-70
2021/09/17 03:26:24;;;;;;;15.23;10.38;;;;;;;18.86;55.70;99483.34;5023994;28;20033;-70
2021/09/17 03:28:49;;;;;;;16.92;10.35;;;;;;;18.78;55.86;99479.66;5021910;28;20072;-70
2021/09/17 03:31:15;;;;;;;14.13;11.40;;;;;;;18.72;56.71;99469.91;5022742;28;20054;-70
2021/09/17 03:33:40;;;;;;;15.80;11.68;;;;;;;18.63;56.83;99462.53;5024725;28;20514;-70
2021/09/17 03:36:06;;;;;;;33.35;10.30;;;;;;;18.72;56.32;99467.06;5016959;28;20485;-70
2021/09/17 03:38:31;;;;;;;20.23;12.60;;;;;;;18.62;56.68;99469.41;5020141;28;20022;-70
2021/09/17 03:40:57;;;;;;;16.30;11.20;;;;;;;18.60;56.52;99477.47;5019023;28;20492;-70
2021/09/17 03:43:22;;;;;;;34.95;11.35;;;;;;;18.58;56.46;99482.72;5021109;28;20029;-70
2021/09/17 03:45:48;;;;;;;29.42;12.68;;;;;;;18.51;56.64;99480.59;5030648;28;20026;-70
2021/09/17 03:48:14;;;;;;;27.40;12.75;;;;;;;18.43;56.96;99490.25;5045681;28;20052;-70
2021/09/17 03:50:40;;;;;;;19.88;12.07;;;;;;;18.31;57.32;99477.16;5033135;28;20030;-70
2021/09/17 03:53:06;;;;;;;19.42;10.90;;;;;;;18.23;57.73;99476.28;5045526;28;20047;-70
2021/09/17 03:55:34;;;;;;;22.90;12.52;;;;;;;18.25;57.71;99473.06;5041606;28;20021;-70
2021/09/17 03:58:00;;;;;;;28.52;12.82;;;;;;;18.21;57.41;99469.38;5039413;28;20484;-70
2021/09/17 04:00:26;;;;;;;39.33;13.52;;;;;;;18.15;57.75;99468.09;5035511;28;20089;-70
2021/09/17 04:02:51;;;;;;;43.63;14.00;;;;;;;18.19;57.48;99457.63;5043716;28;20582;-70
2021/09/17 04:05:17;;;;;;;20.48;12.05;;;;;;;18.22;57.75;99460.50;5036963;28;20014;-71
2021/09/17 04:07:43;;;;;;;33.92;12.18;;;;;;;18.24;57.81;99462.97;5024915;28;20022;-72
2021/09/17 04:10:11;;;;;;;24.75;12.00;;;;;;;18.53;56.36;99466.06;5023538;28;20033;-70
2021/09/17 04:12:37;;;;;;;27.55;13.10;;;;;;;18.70;55.86;99480.78;5015214;28;20017;-72
2021/09/17 04:15:03;;;;;;;31.58;12.27;;;;;;;18.44;56.97;99482.56;5024645;28;20025;-72
2021/09/17 04:17:28;;;;;;;21.30;12.00;;;;;;;18.41;56.71;99472.84;5017655;28;20530;-72
2021/09/17 04:19:54;;;;;;;23.73;12.77;;;;;;;18.42;56.50;99470.81;5017231;28;20076;-70
2021/09/17 04:22:19;;;;;;;25.38;11.90;;;;;;;18.44;55.92;99468.41;5017752;28;20029;-71
2021/09/17 04:24:45;;;;;;;23.02;12.32;;;;;;;18.40;56.04;99470.38;5017941;28;20475;-71
2021/09/17 04:27:11;;;;;;;24.17;11.05;;;;;;;18.17;56.29;99471.34;5032988;28;20432;-71
2021/09/17 04:29:36;;;;;;;17.23;10.85;;;;;;;18.13;56.46;99470.50;5033136;28;20087;-71
2021/09/17 04:32:02;;;;;;;29.52;13.18;;;;;;;18.22;56.05;99469.00;5034885;28;20032;-71
2021/09/17 04:34:27;;;;;;;21.35;12.13;;;;;;;18.21;56.24;99475.84;5034362;28;20037;-71
2021/09/17 04:36:53;;;;;;;29.95;12.00;;;;;;;18.20;56.24;99471.41;5028798;28;20084;-71
2021/09/17 04:39:19;;;;;;;26.85;12.88;;;;;;;18.21;56.10;99484.34;5033301;28;20443;-71
2021/09/17 04:41:44;;;;;;;27.52;12.40;;;;;;;18.24;55.96;99479.94;5031747;28;20029;-71
2021/09/17 04:44:10;;;;;;;29.98;12.55;;;;;;;18.27;55.80;99473.50;5039107;28;20035;-71
2021/09/17 04:46:36;;;;;;;26.63;11.98;;;;;;;18.43;55.24;99472.44;5030451;28;20029;-71
2021/09/17 04:49:01;;;;;;;25.40;12.23;;;;;;;18.62;54.58;99480.72;5050037;28;20083;-71
2021/09/17 04:51:27;;;;;;;38.47;12.65;;;;;;;18.64;54.94;99477.50;5033800;28;20702;-70
2021/09/17 04:53:52;;;;;;;34.78;12.85;;;;;;;18.78;54.37;99480.47;5031143;28;20076;-71
2021/09/17 04:56:18;;;;;;;33.45;11.88;;;;;;;18.93;54.21;99478.56;5026136;28;20064;-72
2021/09/17 04:58:44;;;;;;;40.60;11.60;;;;;;;19.01;54.98;99464.50;5022471;28;20029;-73
2021/09/17 05:01:09;;;;;;;23.95;11.07;;;;;;;19.14;54.26;99476.34;5017605;28;20025;-74
2021/09/17 05:03:35;;;;;;;27.05;11.65;;;;;;;19.21;54.22;99474.38;5021273;28;20416;-71
2021/09/17 05:06:00;;;;;;;21.42;11.25;;;;;;;19.39;53.42;99479.34;5016458;28;20168;-71
2021/09/17 05:08:26;;;;;;;22.85;11.40;;;;;;;19.55;52.60;99479.03;5020925;28;20021;-71
2021/09/17 05:10:51;;;;;;;20.13;10.52;;;;;;;19.59;52.82;99491.19;5021484;28;20022;-71
2021/09/17 05:13:17;;;;;;;27.05;10.90;;;;;;;19.68;52.82;99485.19;5016419;28;20041;-71
2021/09/17 05:15:43;;;;;;;25.50;12.20;;;;;;;19.75;52.81;99482.38;5026462;28;20025;-70
2021/09/17 05:18:09;;;;;;;24.73;11.98;;;;;;;19.76;53.10;99471.84;5032736;28;20577;-71
2021/09/17 05:20:34;;;;;;;19.35;11.55;;;;;;;19.73;53.34;99473.47;5033641;28;20029;-70
2021/09/17 05:23:00;;;;;;;22.27;11.30;;;;;;;19.81;53.30;99482.00;5032521;28;20020;-71
2021/09/17 05:25:25;;;;;;;18.00;11.75;;;;;;;19.90;52.78;99479.59;5033483;28;20025;-71
2021/09/17 05:27:51;;;;;;;18.08;11.45;;;;;;;19.97;52.81;99479.69;5037379;28;20447;-71
2021/09/17 05:30:16;;;;;;;14.65;11.00;;;;;;;19.96;53.09;99480.88;5032367;28;20053;-71
2021/09/17 05:32:42;;;;;;;22.77;12.48;;;;;;;19.96;53.36;99472.38;5034240;28;20036;-71
2021/09/17 05:35:08;;;;;;;21.08;11.85;;;;;;;20.05;53.23;99489.03;5035478;28;20025;-71
2021/09/17 05:37:34;;;;;;;27.70;12.55;;;;;;;19.99;53.29;99485.75;5033897;28;20032;-71
2021/09/17 05:40:00;;;;;;;23.95;11.77;;;;;;;20.00;53.74;99484.53;5037786;28;20595;-71
2021/09/17 05:42:25;;;;;;;18.85;12.02;;;;;;;19.90;54.27;99485.28;5034848;28;20031;-71
2021/09/17 05:44:51;;;;;;;19.40;11.80;;;;;;;20.01;53.93;99491.06;5031422;28;20042;-71
2021/09/17 05:47:16;;;;;;;27.52;12.65;;;;;;;20.03;54.27;99491.47;5017085;28;20145;-71
2021/09/17 05:49:42;;;;;;;22.08;11.65;;;;;;;19.99;54.43;99494.28;5009965;28;20034;-71
2021/09/17 05:52:07;;;;;;;21.50;12.43;;;;;;;20.09;54.33;99503.25;5013557;28;20033;-71
2021/09/17 05:54:33;;;;;;;25.45;13.52;;;;;;;20.12;54.34;99505.28;5021305;28;20090;-71
2021/09/17 05:57:02;;;;;;;23.13;12.05;;;;;;;19.93;55.28;99510.06;5021332;28;20071;-71
2021/09/17 05:59:28;;;;;;;29.87;12.67;;;;;;;19.97;55.10;99516.56;5022279;28;20408;-71
2021/09/17 06:01:53;;;;;;;20.33;12.85;;;;;;;19.85;55.46;99519.72;5015894;28;20104;-71
2021/09/17 06:04:19;;;;;;;21.95;13.50;;;;;;;19.75;55.86;99507.91;5025069;28;20033;-71
2021/09/17 06:06:46;;;;;;;22.35;12.98;;;;;;;19.81;56.08;99501.88;5019902;28;20673;-71
2021/09/17 06:09:12;;;;;;;30.80;12.82;;;;;;;19.77;56.30;99496.19;5015809;28;20025;-71
2021/09/17 06:11:38;;;;;;;32.55;13.77;;;;;;;19.91;55.67;99506.78;5020624;28;20044;-71
2021/09/17 06:14:03;;;;;;;18.95;13.05;;;;;;;19.88;55.78;99493.38;5020691;28;20034;-71
2021/09/17 06:16:29;;;;;;;31.33;14.90;;;;;;;19.93;55.82;99490.22;5021131;28;20053;-71
2021/09/17 06:19:02;;;;;;;34.42;13.40;;;;;;;19.96;55.58;99497.09;5018992;28;20045;-71
2021/09/17 06:21:28;;;;;;;26.23;12.55;;;;;;;19.92;55.29;99497.06;5014290;28;20021;-70
2021/09/17 06:23:53;;;;;;;29.33;13.77;;;;;;;20.02;55.28;99509.72;5024223;28;20037;-70
2021/09/17 06:26:19;;;;;;;34.67;13.43;;;;;;;20.03;55.29;99503.63;5031801;28;20037;-70
2021/09/17 06:28:44;;;;;;;16.88;12.60;;;;;;;20.03;55.45;99503.63;5031531;28;20033;-70
2021/09/17 06:31:10;;;;;;;24.95;13.20;;;;;;;20.15;54.98;99507.31;5026860;28;20476;-70
2021/09/17 06:33:35;;;;;;;20.50;13.13;;;;;;;20.26;53.98;99511.00;5032850;28;20033;-70
2021/09/17 06:36:01;;;;;;;21.38;12.52;;;;;;;20.24;53.98;99502.06;5033333;28;20025;-71
2021/09/17 06:38:26;;;;;;;21.23;11.77;;;;;;;20.14;54.32;99494.31;5035796;28;20041;-70
2021/09/17 06:40:52;;;;;;;16.65;11.93;;;;;;;20.19;54.26;99485.44;5032839;28;20502;-70
2021/09/17 06:43:17;;;;;;;21.60;11.55;;;;;;;20.27;53.68;99483.44;5033531;28;20021;-70
2021/09/17 06:45:43;;;;;;;18.05;12.60;;;;;;;20.33;53.82;99482.63;5018610;28;20078;-70
2021/09/17 06:48:08;;;;;;;23.30;11.73;;;;;;;20.34;53.92;99492.78;5020533;28;20037;-70
2021/09/17 06:50:34;;;;;;;20.10;12.13;;;;;;;20.46;53.94;99487.94;5017727;28;20034;-70
2021/09/17 06:52:59;;;;;;;18.13;11.98;;;;;;;20.53;54.12;99479.44;5009902;28;20083;-70
2021/09/17 06:55:27;;;;;;;18.00;13.13;;;;;;;20.59;53.71;99472.13;5018733;28;20029;-70
2021/09/17 06:57:58;;;;;;;22.42;13.90;;;;;;;20.67;53.54;99472.16;5019429;28;20028;-70
2021/09/17 07:00:26;;;;;;;19.48;13.88;;;;;;;20.71;53.38;99468.09;5040108;28;20427;-70
2021/09/17 07:02:51;;;;;;;17.60;12.45;;;;;;;20.82;53.23;99453.91;5042492;28;20020;-70
2021/09/17 07:05:17;;;;;;;20.27;13.95;;;;;;;20.92;52.87;99465.69;5045115;28;20036;-70
2021/09/17 07:07:44;;;;;;;14.43;12.55;;;;;;;21.06;52.44;99471.38;5043565;28;20060;-70
2021/09/17 07:10:10;;;;;;;18.95;14.02;;;;;;;21.10;51.84;99460.00;5040934;28;20024;-70
2021/09/17 07:12:37;;;;;;;19.55;12.77;;;;;;;21.19;52.49;99451.88;5043607;28;20086;-70
2021/09/17 07:15:04;;;;;;;17.60;13.02;;;;;;;21.26;52.24;99442.50;5037152;28;20029;-70
2021/09/17 07:17:30;;;;;;;23.70;12.93;;;;;;;21.42;51.35;99451.41;5051371;28;20025;-70
2021/09/17 07:19:56;;;;;;;16.27;12.55;;;;;;;21.55;50.54;99448.94;5045590;28;20131;-70
2021/09/17 07:22:21;;;;;;;18.33;12.50;;;;;;;21.72;49.86;99441.59;5040639;28;20025;-70
2021/09/17 07:24:48;;;;;;;19.95;12.50;;;;;;;21.74;49.44;99441.19;5047172;28;20044;-70
2021/09/17 07:27:14;;;;;;;18.33;12.57;;;;;;;21.84;49.44;99433.81;5050133;28;20017;-70
2021/09/17 07:29:39;;;;;;;13.00;10.80;;;;;;;21.94;49.89;99427.25;5048293;28;20053;-70
2021/09/17 07:32:06;;;;;;;17.63;11.98;;;;;;;22.12;49.40;99420.66;5039362;28;20482;-70
2021/09/17 07:34:31;;;;;;;18.13;11.95;;;;;;;22.22;49.13;99424.69;5046232;28;20061;-70
2021/09/17 07:36:57;;;;;;;14.43;12.18;;;;;;;22.24;49.30;99428.75;5024623;28;20048;-70
2021/09/17 07:39:22;;;;;;;27.77;12.98;;;;;;;22.29;50.08;99418.94;5029445;28;20037;-70
2021/09/17 07:41:48;;;;;;;16.05;12.02;;;;;;;22.30;49.42;99415.66;5022031;28;20508;-69
2021/09/17 07:44:13;;;;;;;19.05;12.13;;;;;;;22.39;48.54;99408.69;5016650;28;20552;-69
2021/09/17 07:46:39;;;;;;;38.85;12.82;;;;;;;22.41;49.13;99409.91;5018153;28;20036;-70
2021/09/17 07:49:04;;;;;;;19.38;12.20;;;;;;;22.59;48.83;99397.56;5026949;28;20033;-70
2021/09/17 07:51:30;;;;;;;18.25;12.75;;;;;;;22.63;48.51;99401.22;5025019;28;20041;-70
2021/09/17 07:53:55;;;;;;;20.48;12.80;;;;;;;22.70;48.52;99408.91;5031108;28;20068;-70
2021/09/17 07:56:21;;;;;;;20.13;13.52;;;;;;;22.75;47.32;99416.22;5041522;28;20458;-70
2021/09/17 07:58:47;;;;;;;21.60;12.73;;;;;;;22.93;47.19;99411.13;5041550;28;20016;-70
2021/09/17 08:01:12;;;;;;;20.63;12.57;;;;;;;23.03;47.80;99408.63;5042011;28;20025;-70
2021/09/17 08:03:37;;;;;;;18.05;11.85;;;;;;;23.04;47.57;99405.31;5040090;28;20115;-70
2021/09/17 08:06:03;;;;;;;43.08;14.40;;;;;;;23.27;45.36;99401.03;5027023;28;20029;-70
2021/09/17 08:08:28;;;;;;;20.35;12.35;;;;;;;23.34;45.19;99400.16;5028191;28;20025;-71
2021/09/17 08:10:55;;;;;;;22.58;12.60;;;;;;;23.51;45.21;99404.88;5038411;28;20017;-70
2021/09/17 08:13:20;;;;;;;17.00;11.50;;;;;;;23.52;45.97;99403.63;5023336;28;20061;-70
2021/09/17 08:15:46;;;;;;;23.67;11.75;;;;;;;23.42;46.58;99396.00;5024501;28;20056;-70
2021/09/17 08:18:12;;;;;;;14.50;10.80;;;;;;;23.42;46.76;99390.28;5025388;28;20096;-70
2021/09/17 08:20:40;;;;;;;18.02;12.15;;;;;;;23.51;46.75;99386.91;5023926;28;20033;-70
2021/09/17 08:23:06;;;;;;;23.65;12.15;;;;;;;23.56;46.65;99397.88;5023894;28;20416;-69
2021/09/17 08:25:32;;;;;;;22.75;12.00;;;;;;;23.67;46.34;99389.19;5025503;28;20044;-70
2021/09/17 08:27:57;;;;;;;20.30;11.10;;;;;;;23.64;46.21;99378.63;5025712;28;20033;-69
2021/09/17 08:30:23;;;;;;;23.10;11.90;;;;;;;23.69;46.15;99378.13;5031170;28;20033;-70
2021/09/17 08:32:48;;;;;;;16.02;11.65;;;;;;;23.83;45.83;99374.28;5029887;28;20152;-70
2021/09/17 08:35:14;;;;;;;16.23;12.13;;;;;;;23.86;45.04;99379.13;5028628;28;20029;-70
2021/09/17 08:37:40;;;;;;;16.85;11.77;;;;;;;23.89;45.68;99374.63;5031705;28;20502;-70
2021/09/17 08:40:07;;;;;;;18.05;11.68;;;;;;;23.89;44.96;99372.59;5030694;28;20190;-70
2021/09/17 08:42:33;;;;;;;19.95;11.30;;;;;;;24.05;44.45;99371.97;5033867;28;20037;-70
2021/09/17 08:44:59;;;;;;;24.27;17.25;;;;;;;24.07;44.28;99360.94;5030142;28;20538;-72
2021/09/17 08:47:25;;;;;;;20.83;14.23;;;;;;;24.20;44.11;99357.50;5028976;28;20053;-69
2021/09/17 08:49:51;;;;;;;31.20;17.33;;;;;;;24.31;44.40;99360.16;5036373;28;20487;-70
2021/09/17 08:52:16;;;;;;;17.65;12.45;;;;;;;24.43;44.15;99353.84;5030284;28;20026;-71
2021/09/17 08:54:42;;;;;;;15.30;11.27;;;;;;;24.47;43.31;99337.44;5038461;28;20033;-70
2021/09/17 08:57:08;;;;;;;20.90;11.95;;;;;;;24.57;43.06;99332.78;5034145;28;20025;-71
2021/09/17 08:59:35;;;;;;;16.38;12.05;;;;;;;24.51;43.33;99332.47;5029996;28;20029;-70
2021/09/17 09:02:26;;;;;;;19.38;12.70;;;;;;;24.69;43.01;99328.50;5032140;28;20025;-71
2021/09/17 09:05:06;;;;;;;20.70;12.73;;;;;;;24.75;43.46;99317.34;5029775;28;20086;-72
2021/09/17 09:07:34;;;;;;;26.65;15.88;;;;;;;25.10;42.23;99315.09;5033397;28;20029;-71
2021/09/17 09:10:04;;;;;;;22.60;14.73;;;;;;;25.13;42.48;99310.56;5033712;28;20036;-70
2021/09/17 09:12:30;;;;;;;66.25;28.45;;;;;;;25.21;41.53;99297.69;5029154;28;20045;-70
2021/09/17 09:15:26;;;;;;;24.83;15.35;;;;;;;25.36;41.34;99301.91;5029451;28;20079;-71
2021/09/17 09:18:11;;;;;;;358.15;147.93;;;;;;;25.41;41.67;99306.31;5039089;28;20051;-70
2021/09/17 09:20:39;;;;;;;22.08;15.48;;;;;;;25.33;40.19;99293.38;5034630;28;20036;-72
2021/09/17 09:23:15;;;;;;;16.75;14.10;;;;;;;25.54;39.91;99295.00;5032200;28;20036;-71
2021/09/17 09:26:01;;;;;;;25.25;15.45;;;;;;;25.66;39.95;99276.34;5035520;28;20490;-70
2021/09/17 09:28:30;;;;;;;16.20;13.75;;;;;;;25.56;39.89;99266.72;5039261;28;20021;-70
2021/09/17 09:30:57;;;;;;;21.35;13.48;;;;;;;25.68;40.59;99258.69;5031881;28;20020;-71
2021/09/17 09:33:25;;;;;;;25.15;13.00;;;;;;;25.84;39.62;99253.00;5043392;28;20083;-72
2021/09/17 09:36:03;;;;;;;20.25;13.45;;;;;;;25.85;39.19;99251.75;5029797;28;20070;-71
2021/09/17 09:38:45;;;;;;;19.23;12.52;;;;;;;25.84;39.69;99250.16;5035013;28;20013;-70
2021/09/17 09:41:20;;;;;;;16.48;11.80;;;;;;;26.02;38.33;99249.72;5038247;28;20555;-70
2021/09/17 09:43:53;;;;;;;17.10;12.90;;;;;;;26.18;38.37;99243.19;5039973;28;20029;-71
2021/09/17 09:46:28;;;;;;;23.02;12.05;;;;;;;26.16;37.76;99242.81;5018847;28;20123;-71
2021/09/17 09:49:06;;;;;;;18.33;12.15;;;;;;;26.25;38.20;99238.53;5035532;28;20116;-71
2021/09/17 09:51:35;;;;;;;15.30;11.27;;;;;;;26.42;37.49;99237.25;5041461;28;20024;-71
2021/09/17 09:54:03;;;;;;;15.98;10.38;;;;;;;26.58;36.42;99238.50;5038070;28;20032;-72
2021/09/17 09:56:30;;;;;;;14.15;10.63;;;;;;;26.80;36.16;99246.50;5027883;28;20029;-71
2021/09/17 09:58:55;;;;;;;19.88;10.73;;;;;;;26.73;36.35;99230.31;5032088;28;20056;-70
2021/09/17 10:01:23;;;;;;;21.60;11.75;;;;;;;26.80;36.58;99230.09;5030146;28;20052;-70
2021/09/17 10:03:56;;;;;;;20.15;11.13;;;;;;;26.82;36.02;99233.31;5027002;28;20036;-70
2021/09/17 10:06:24;;;;;;;17.42;11.95;;;;;;;26.76;36.33;99229.41;5029946;28;20072;-70
2021/09/17 10:08:53;;;;;;;16.98;11.02;;;;;;;26.88;35.59;99231.53;5025595;28;20017;-70
2021/09/17 10:11:19;;;;;;;15.57;10.60;;;;;;;27.05;36.07;99220.81;5033987;28;20017;-70
2021/09/17 10:13:44;;;;;;;17.15;9.80;;;;;;;27.31;35.22;99214.28;5025404;28;20100;-70
2021/09/17 10:16:10;;;;;;;27.80;14.00;;;;;;;27.24;35.92;99215.31;5059099;28;20024;-70
2021/09/17 10:18:37;;;;;;;15.70;10.93;;;;;;;27.22;35.73;99217.06;5040085;28;20164;-70
2021/09/17 10:21:02;;;;;;;18.95;10.90;;;;;;;27.50;34.51;99208.81;5028526;28;20029;-70
2021/09/17 10:23:33;;;;;;;21.27;11.88;;;;;;;27.59;35.41;99209.75;5033910;28;20029;-69
2021/09/17 10:26:09;;;;;;;24.50;11.07;;;;;;;27.51;35.25;99205.47;5037419;28;20116;-71
2021/09/17 10:29:02;;;;;;;21.48;11.20;;;;;;;27.52;35.37;99204.22;5027976;28;20512;-69
2021/09/17 10:31:40;;;;;;;18.05;10.93;;;;;;;27.60;35.11;99208.50;5040660;28;20017;-69
2021/09/17 10:34:34;;;;;;;32.17;11.65;;;;;;;27.61;35.73;99217.94;5019770;28;20020;-71
2021/09/17 10:37:00;;;;;;;22.27;11.02;;;;;;;27.81;35.06;99214.00;5036051;28;20032;-70
2021/09/17 10:39:26;;;;;;;18.77;10.70;;;;;;;27.79;34.89;99207.91;5021809;28;20208;-70
2021/09/17 10:42:06;;;;;;;28.50;10.63;;;;;;;27.76;34.57;99195.28;5038678;28;20499;-69
2021/09/17 10:44:32;;;;;;;29.08;12.30;;;;;;;27.84;35.38;99190.09;5027400;28;20523;-70
2021/09/17 10:46:57;;;;;;;18.52;10.63;;;;;;;27.85;34.87;99192.50;5036326;28;20032;-72
2021/09/17 10:49:22;;;;;;;19.65;12.70;;;;;;;27.85;34.43;99180.22;5026967;28;20044;-72
2021/09/17 10:51:48;;;;;;;19.13;10.95;;;;;;;27.93;34.34;99172.16;5036619;28;20034;-69
2021/09/17 10:54:19;;;;;;;20.13;10.60;;;;;;;28.21;33.60;99161.78;5033688;28;20049;-70
2021/09/17 10:57:06;;;;;;;17.10;10.45;;;;;;;28.23;34.25;99152.66;5023880;28;20025;-71
2021/09/17 10:59:43;;;;;;;18.55;9.82;;;;;;;28.35;33.83;99163.31;5025831;28;20022;-69
2021/09/17 11:02:09;;;;;;;17.00;10.75;;;;;;;28.24;33.26;99165.81;5029926;28;20460;-70
2021/09/17 11:04:44;;;;;;;18.92;11.13;;;;;;;28.26;34.35;99164.06;5029744;28;20083;-71
2021/09/17 11:07:16;;;;;;;20.17;10.27;;;;;;;28.43;32.23;99156.06;5029950;28;20515;-70
2021/09/17 11:09:45;;;;;;;17.38;10.15;;;;;;;28.58;32.29;99161.28;5033596;28;20090;-70
2021/09/17 11:12:25;;;;;;;24.85;11.38;;;;;;;28.56;32.48;99155.19;5031282;28;20128;-69
2021/09/17 11:15:16;;;;;;;18.38;10.55;;;;;;;28.59;32.63;99148.50;5026945;28;20052;-69
2021/09/17 11:17:49;;;;;;;20.90;11.90;;;;;;;28.58;32.53;99141.97;5028548;28;20068;-69
2021/09/17 11:20:26;;;;;;;16.33;10.65;;;;;;;28.56;32.63;99132.19;5030994;28;20023;-69